sensor_id;sensor_type;location;lat;lon;timestamp;P1;durP1;ratioP1;P2;durP2;ratioP2
77226;SDS011;66234;47.642;19.144;2023-12-04T00:02:40;12.65;;;6.20;;
77226;SDS011;66234;47.642;19.144;2023-12-04T00:05:42;15.02;;;6.30;;
77226;SDS011;66234;47.642;19.144;2023-12-04T00:08:45;12.32;;;6.88;;
77226;SDS011;66234;47.642;19.144;2023-12-04T00:11:48;11.63;;;6.45;;
77226;SDS011;66234;47.642;19.144;2023-12-04T00:14:51;12.70;;;5.65;;
77226;SDS011;66234;47.642;19.144;2023-12-04T00:17:53;13.05;;;6.43;;
77226;SDS011;66234;47.642;19.144;2023-12-04T00:20:56;13.50;;;6.20;;
77226;SDS011;66234;47.642;19.144;2023-12-04T00:23:59;13.05;;;5.60;;
77226;SDS011;66234;47.642;19.144;2023-12-04T00:27:02;11.90;;;6.60;;
77226;SDS011;66234;47.642;19.144;2023-12-04T00:30:04;13.97;;;6.87;;
77226;SDS011;66234;47.642;19.144;2023-12-04T00:33:08;15.45;;;7.05;;
77226;SDS011;66234;47.642;19.144;2023-12-04T00:36:11;15.35;;;7.15;;
77226;SDS011;66234;47.642;19.144;2023-12-04T00:39:13;11.35;;;5.35;;
77226;SDS011;66234;47.642;19.144;2023-12-04T00:42:16;13.93;;;6.55;;
77226;SDS011;66234;47.642;19.144;2023-12-04T00:45:18;16.05;;;7.07;;
77226;SDS011;66234;47.642;19.144;2023-12-04T00:48:21;13.65;;;6.80;;
77226;SDS011;66234;47.642;19.144;2023-12-04T00:51:23;14.43;;;7.50;;
77226;SDS011;66234;47.642;19.144;2023-12-04T00:54:26;15.57;;;7.32;;
77226;SDS011;66234;47.642;19.144;2023-12-04T00:57:29;16.00;;;7.55;;
77226;SDS011;66234;47.642;19.144;2023-12-04T01:00:32;15.97;;;8.83;;
77226;SDS011;66234;47.642;19.144;2023-12-04T01:03:34;13.82;;;6.25;;
77226;SDS011;66234;47.642;19.144;2023-12-04T01:06:37;14.73;;;7.40;;
77226;SDS011;66234;47.642;19.144;2023-12-04T01:09:40;13.73;;;7.57;;
77226;SDS011;66234;47.642;19.144;2023-12-04T01:12:43;19.95;;;7.47;;
77226;SDS011;66234;47.642;19.144;2023-12-04T01:15:45;11.32;;;5.43;;
77226;SDS011;66234;47.642;19.144;2023-12-04T01:18:49;13.57;;;7.28;;
77226;SDS011;66234;47.642;19.144;2023-12-04T01:21:51;23.73;;;7.90;;
77226;SDS011;66234;47.642;19.144;2023-12-04T01:24:55;17.10;;;8.10;;
77226;SDS011;66234;47.642;19.144;2023-12-04T01:27:57;16.00;;;8.18;;
77226;SDS011;66234;47.642;19.144;2023-12-04T01:31:00;16.93;;;7.07;;
77226;SDS011;66234;47.642;19.144;2023-12-04T01:34:03;12.27;;;6.82;;
77226;SDS011;66234;47.642;19.144;2023-12-04T01:37:06;15.15;;;6.97;;
77226;SDS011;66234;47.642;19.144;2023-12-04T01:40:08;13.60;;;5.65;;
77226;SDS011;66234;47.642;19.144;2023-12-04T01:43:12;16.00;;;6.82;;
77226;SDS011;66234;47.642;19.144;2023-12-04T01:46:15;14.45;;;6.50;;
77226;SDS011;66234;47.642;19.144;2023-12-04T01:49:19;17.75;;;8.02;;
77226;SDS011;66234;47.642;19.144;2023-12-04T01:52:22;15.03;;;6.70;;
77226;SDS011;66234;47.642;19.144;2023-12-04T01:55:26;16.27;;;6.70;;
77226;SDS011;66234;47.642;19.144;2023-12-04T01:58:30;12.50;;;6.22;;
77226;SDS011;66234;47.642;19.144;2023-12-04T02:01:33;20.60;;;10.17;;
77226;SDS011;66234;47.642;19.144;2023-12-04T02:04:36;17.58;;;7.68;;
77226;SDS011;66234;47.642;19.144;2023-12-04T02:07:40;17.60;;;7.78;;
77226;SDS011;66234;47.642;19.144;2023-12-04T02:10:43;16.90;;;8.02;;
77226;SDS011;66234;47.642;19.144;2023-12-04T02:13:45;14.75;;;7.43;;
77226;SDS011;66234;47.642;19.144;2023-12-04T02:16:48;17.02;;;8.40;;
77226;SDS011;66234;47.642;19.144;2023-12-04T02:19:52;25.42;;;9.48;;
77226;SDS011;66234;47.642;19.144;2023-12-04T02:22:56;16.87;;;8.03;;
77226;SDS011;66234;47.642;19.144;2023-12-04T02:25:59;16.52;;;8.38;;
77226;SDS011;66234;47.642;19.144;2023-12-04T02:29:07;17.63;;;8.88;;
77226;SDS011;66234;47.642;19.144;2023-12-04T02:32:14;20.03;;;8.53;;
77226;SDS011;66234;47.642;19.144;2023-12-04T02:35:20;27.08;;;9.88;;
77226;SDS011;66234;47.642;19.144;2023-12-04T02:38:25;28.65;;;13.07;;
77226;SDS011;66234;47.642;19.144;2023-12-04T02:41:28;28.42;;;12.38;;
77226;SDS011;66234;47.642;19.144;2023-12-04T02:44:31;23.10;;;10.95;;
77226;SDS011;66234;47.642;19.144;2023-12-04T02:47:33;23.85;;;10.32;;
77226;SDS011;66234;47.642;19.144;2023-12-04T02:50:36;26.73;;;11.88;;
77226;SDS011;66234;47.642;19.144;2023-12-04T02:53:39;24.10;;;10.53;;
77226;SDS011;66234;47.642;19.144;2023-12-04T02:56:41;30.02;;;12.43;;
77226;SDS011;66234;47.642;19.144;2023-12-04T02:59:44;28.05;;;11.38;;
77226;SDS011;66234;47.642;19.144;2023-12-04T03:02:46;31.70;;;13.23;;
77226;SDS011;66234;47.642;19.144;2023-12-04T03:05:49;31.20;;;12.85;;
77226;SDS011;66234;47.642;19.144;2023-12-04T03:08:51;31.50;;;11.68;;
77226;SDS011;66234;47.642;19.144;2023-12-04T03:11:54;23.48;;;10.77;;
77226;SDS011;66234;47.642;19.144;2023-12-04T03:14:56;26.73;;;12.77;;
77226;SDS011;66234;47.642;19.144;2023-12-04T03:17:59;24.83;;;12.80;;
77226;SDS011;66234;47.642;19.144;2023-12-04T03:21:06;25.27;;;11.00;;
77226;SDS011;66234;47.642;19.144;2023-12-04T03:24:08;30.37;;;13.53;;
77226;SDS011;66234;47.642;19.144;2023-12-04T03:27:11;30.95;;;13.00;;
77226;SDS011;66234;47.642;19.144;2023-12-04T03:30:14;26.98;;;12.95;;
77226;SDS011;66234;47.642;19.144;2023-12-04T03:33:16;29.73;;;12.57;;
77226;SDS011;66234;47.642;19.144;2023-12-04T03:36:19;29.67;;;12.55;;
77226;SDS011;66234;47.642;19.144;2023-12-04T03:39:21;30.77;;;13.43;;
77226;SDS011;66234;47.642;19.144;2023-12-04T03:42:24;34.75;;;14.98;;
77226;SDS011;66234;47.642;19.144;2023-12-04T03:45:26;28.30;;;12.93;;
77226;SDS011;66234;47.642;19.144;2023-12-04T03:48:29;36.03;;;13.63;;
77226;SDS011;66234;47.642;19.144;2023-12-04T03:51:32;33.47;;;15.65;;
77226;SDS011;66234;47.642;19.144;2023-12-04T03:54:35;30.23;;;13.90;;
77226;SDS011;66234;47.642;19.144;2023-12-04T03:57:37;29.98;;;13.80;;
77226;SDS011;66234;47.642;19.144;2023-12-04T04:00:40;35.42;;;13.77;;
77226;SDS011;66234;47.642;19.144;2023-12-04T04:03:45;24.83;;;11.13;;
77226;SDS011;66234;47.642;19.144;2023-12-04T04:06:48;32.55;;;14.82;;
77226;SDS011;66234;47.642;19.144;2023-12-04T04:09:51;19.50;;;10.13;;
77226;SDS011;66234;47.642;19.144;2023-12-04T04:12:53;24.77;;;12.75;;
77226;SDS011;66234;47.642;19.144;2023-12-04T04:15:56;21.40;;;11.63;;
77226;SDS011;66234;47.642;19.144;2023-12-04T04:18:58;25.27;;;12.45;;
77226;SDS011;66234;47.642;19.144;2023-12-04T04:22:01;24.63;;;11.00;;
77226;SDS011;66234;47.642;19.144;2023-12-04T04:25:05;26.80;;;11.23;;
77226;SDS011;66234;47.642;19.144;2023-12-04T04:28:08;23.38;;;10.93;;
77226;SDS011;66234;47.642;19.144;2023-12-04T04:31:11;24.50;;;11.10;;
77226;SDS011;66234;47.642;19.144;2023-12-04T04:34:13;19.60;;;9.57;;
77226;SDS011;66234;47.642;19.144;2023-12-04T04:37:16;29.25;;;10.98;;
77226;SDS011;66234;47.642;19.144;2023-12-04T04:40:19;25.75;;;12.30;;
77226;SDS011;66234;47.642;19.144;2023-12-04T04:43:21;24.73;;;10.93;;
77226;SDS011;66234;47.642;19.144;2023-12-04T04:46:24;23.42;;;11.55;;
77226;SDS011;66234;47.642;19.144;2023-12-04T04:49:28;28.98;;;13.02;;
77226;SDS011;66234;47.642;19.144;2023-12-04T04:52:31;27.17;;;11.52;;
77226;SDS011;66234;47.642;19.144;2023-12-04T04:55:34;26.87;;;12.33;;
77226;SDS011;66234;47.642;19.144;2023-12-04T04:58:50;21.23;;;11.27;;
77226;SDS011;66234;47.642;19.144;2023-12-04T05:01:54;27.75;;;12.18;;
77226;SDS011;66234;47.642;19.144;2023-12-04T05:04:57;25.80;;;13.13;;
77226;SDS011;66234;47.642;19.144;2023-12-04T05:07:59;22.52;;;10.10;;
77226;SDS011;66234;47.642;19.144;2023-12-04T05:11:02;19.83;;;10.25;;
77226;SDS011;66234;47.642;19.144;2023-12-04T05:14:05;20.55;;;11.32;;
77226;SDS011;66234;47.642;19.144;2023-12-04T05:17:07;22.73;;;11.23;;
77226;SDS011;66234;47.642;19.144;2023-12-04T05:20:10;23.17;;;11.57;;
77226;SDS011;66234;47.642;19.144;2023-12-04T05:23:12;22.15;;;11.65;;
77226;SDS011;66234;47.642;19.144;2023-12-04T05:26:15;28.83;;;13.83;;
77226;SDS011;66234;47.642;19.144;2023-12-04T05:29:18;26.20;;;13.05;;
77226;SDS011;66234;47.642;19.144;2023-12-04T05:32:21;28.25;;;11.77;;
77226;SDS011;66234;47.642;19.144;2023-12-04T05:35:23;22.03;;;11.43;;
77226;SDS011;66234;47.642;19.144;2023-12-04T05:38:26;25.83;;;12.20;;
77226;SDS011;66234;47.642;19.144;2023-12-04T05:41:29;30.10;;;12.77;;
77226;SDS011;66234;47.642;19.144;2023-12-04T05:44:31;26.20;;;12.95;;
77226;SDS011;66234;47.642;19.144;2023-12-04T05:47:34;28.67;;;12.80;;
77226;SDS011;66234;47.642;19.144;2023-12-04T05:50:40;21.58;;;10.10;;
77226;SDS011;66234;47.642;19.144;2023-12-04T05:53:42;19.80;;;10.00;;
77226;SDS011;66234;47.642;19.144;2023-12-04T05:56:45;23.53;;;12.73;;
77226;SDS011;66234;47.642;19.144;2023-12-04T05:59:47;30.88;;;13.10;;
77226;SDS011;66234;47.642;19.144;2023-12-04T06:02:50;25.25;;;12.23;;
77226;SDS011;66234;47.642;19.144;2023-12-04T06:05:53;24.87;;;11.60;;
77226;SDS011;66234;47.642;19.144;2023-12-04T06:09:00;29.55;;;10.60;;
77226;SDS011;66234;47.642;19.144;2023-12-04T06:12:02;32.92;;;13.55;;
77226;SDS011;66234;47.642;19.144;2023-12-04T06:15:10;52.47;;;17.40;;
77226;SDS011;66234;47.642;19.144;2023-12-04T06:18:13;39.85;;;17.17;;
77226;SDS011;66234;47.642;19.144;2023-12-04T06:21:15;36.05;;;15.18;;
77226;SDS011;66234;47.642;19.144;2023-12-04T06:24:18;33.17;;;15.30;;
77226;SDS011;66234;47.642;19.144;2023-12-04T06:27:22;31.73;;;13.97;;
77226;SDS011;66234;47.642;19.144;2023-12-04T06:30:25;36.35;;;15.80;;
77226;SDS011;66234;47.642;19.144;2023-12-04T06:33:29;25.63;;;13.35;;
77226;SDS011;66234;47.642;19.144;2023-12-04T06:36:35;24.10;;;12.90;;
77226;SDS011;66234;47.642;19.144;2023-12-04T06:39:41;33.03;;;14.68;;
77226;SDS011;66234;47.642;19.144;2023-12-04T06:42:44;35.15;;;18.17;;
77226;SDS011;66234;47.642;19.144;2023-12-04T06:45:46;40.22;;;18.08;;
77226;SDS011;66234;47.642;19.144;2023-12-04T06:48:50;35.40;;;17.92;;
77226;SDS011;66234;47.642;19.144;2023-12-04T06:51:59;32.08;;;16.33;;
77226;SDS011;66234;47.642;19.144;2023-12-04T06:55:03;39.58;;;17.75;;
77226;SDS011;66234;47.642;19.144;2023-12-04T06:58:06;40.30;;;18.23;;
77226;SDS011;66234;47.642;19.144;2023-12-04T07:01:08;39.47;;;17.98;;
77226;SDS011;66234;47.642;19.144;2023-12-04T07:04:11;41.40;;;18.70;;
77226;SDS011;66234;47.642;19.144;2023-12-04T07:07:14;77.27;;;29.13;;
77226;SDS011;66234;47.642;19.144;2023-12-04T07:10:17;57.20;;;26.30;;
77226;SDS011;66234;47.642;19.144;2023-12-04T07:13:20;46.30;;;21.63;;
77226;SDS011;66234;47.642;19.144;2023-12-04T07:16:22;44.38;;;22.55;;
77226;SDS011;66234;47.642;19.144;2023-12-04T07:19:25;51.92;;;21.88;;
77226;SDS011;66234;47.642;19.144;2023-12-04T07:22:29;47.22;;;21.92;;
77226;SDS011;66234;47.642;19.144;2023-12-04T07:25:39;47.97;;;22.95;;
77226;SDS011;66234;47.642;19.144;2023-12-04T07:28:41;55.73;;;23.27;;
77226;SDS011;66234;47.642;19.144;2023-12-04T07:31:44;66.53;;;27.50;;
77226;SDS011;66234;47.642;19.144;2023-12-04T07:34:47;54.83;;;24.00;;
77226;SDS011;66234;47.642;19.144;2023-12-04T07:37:49;59.63;;;25.87;;
77226;SDS011;66234;47.642;19.144;2023-12-04T07:40:52;57.53;;;24.38;;
77226;SDS011;66234;47.642;19.144;2023-12-04T07:43:55;37.55;;;17.25;;
77226;SDS011;66234;47.642;19.144;2023-12-04T07:46:58;36.78;;;17.65;;
77226;SDS011;66234;47.642;19.144;2023-12-04T07:50:00;18.42;;;11.38;;
77226;SDS011;66234;47.642;19.144;2023-12-04T07:53:03;32.40;;;13.77;;
77226;SDS011;66234;47.642;19.144;2023-12-04T07:56:06;21.45;;;11.93;;
77226;SDS011;66234;47.642;19.144;2023-12-04T07:59:09;22.20;;;12.20;;
77226;SDS011;66234;47.642;19.144;2023-12-04T08:02:12;26.17;;;13.23;;
77226;SDS011;66234;47.642;19.144;2023-12-04T08:05:15;26.77;;;13.38;;
77226;SDS011;66234;47.642;19.144;2023-12-04T08:08:17;32.10;;;14.77;;
77226;SDS011;66234;47.642;19.144;2023-12-04T08:11:20;25.42;;;11.77;;
77226;SDS011;66234;47.642;19.144;2023-12-04T08:14:22;27.38;;;13.15;;
77226;SDS011;66234;47.642;19.144;2023-12-04T08:17:25;22.40;;;11.88;;
77226;SDS011;66234;47.642;19.144;2023-12-04T08:20:28;32.80;;;14.65;;
77226;SDS011;66234;47.642;19.144;2023-12-04T08:23:41;41.42;;;16.38;;
77226;SDS011;66234;47.642;19.144;2023-12-04T08:26:46;31.40;;;15.32;;
77226;SDS011;66234;47.642;19.144;2023-12-04T08:29:49;31.70;;;13.47;;
77226;SDS011;66234;47.642;19.144;2023-12-04T08:32:52;34.00;;;16.30;;
77226;SDS011;66234;47.642;19.144;2023-12-04T08:35:55;32.03;;;14.30;;
77226;SDS011;66234;47.642;19.144;2023-12-04T08:38:59;27.50;;;12.70;;
77226;SDS011;66234;47.642;19.144;2023-12-04T08:42:01;29.08;;;12.90;;
77226;SDS011;66234;47.642;19.144;2023-12-04T08:45:10;28.83;;;12.38;;
77226;SDS011;66234;47.642;19.144;2023-12-04T08:48:13;28.17;;;12.75;;
77226;SDS011;66234;47.642;19.144;2023-12-04T08:51:16;25.77;;;11.77;;
77226;SDS011;66234;47.642;19.144;2023-12-04T08:54:20;27.15;;;12.18;;
77226;SDS011;66234;47.642;19.144;2023-12-04T08:57:39;14.35;;;9.32;;
77226;SDS011;66234;47.642;19.144;2023-12-04T09:00:42;20.93;;;8.77;;
77226;SDS011;66234;47.642;19.144;2023-12-04T09:03:46;24.15;;;12.05;;
77226;SDS011;66234;47.642;19.144;2023-12-04T09:06:49;21.42;;;9.75;;
77226;SDS011;66234;47.642;19.144;2023-12-04T09:09:54;25.80;;;12.57;;
77226;SDS011;66234;47.642;19.144;2023-12-04T09:12:58;28.58;;;13.63;;
77226;SDS011;66234;47.642;19.144;2023-12-04T09:16:00;25.23;;;12.10;;
77226;SDS011;66234;47.642;19.144;2023-12-04T09:19:03;23.27;;;12.25;;
77226;SDS011;66234;47.642;19.144;2023-12-04T09:22:07;24.15;;;13.38;;
77226;SDS011;66234;47.642;19.144;2023-12-04T09:25:20;17.80;;;9.23;;
77226;SDS011;66234;47.642;19.144;2023-12-04T09:28:26;26.17;;;13.30;;
77226;SDS011;66234;47.642;19.144;2023-12-04T09:31:29;16.00;;;7.53;;
77226;SDS011;66234;47.642;19.144;2023-12-04T09:34:33;26.48;;;13.50;;
77226;SDS011;66234;47.642;19.144;2023-12-04T09:37:36;17.90;;;8.20;;
77226;SDS011;66234;47.642;19.144;2023-12-04T09:40:39;25.37;;;12.83;;
77226;SDS011;66234;47.642;19.144;2023-12-04T09:43:41;21.23;;;11.43;;
77226;SDS011;66234;47.642;19.144;2023-12-04T09:46:44;18.05;;;10.90;;
77226;SDS011;66234;47.642;19.144;2023-12-04T09:49:48;24.20;;;12.70;;
77226;SDS011;66234;47.642;19.144;2023-12-04T09:52:54;27.85;;;13.13;;
77226;SDS011;66234;47.642;19.144;2023-12-04T09:56:00;23.80;;;12.57;;
77226;SDS011;66234;47.642;19.144;2023-12-04T09:59:06;19.02;;;10.10;;
77226;SDS011;66234;47.642;19.144;2023-12-04T10:02:10;23.77;;;12.17;;
77226;SDS011;66234;47.642;19.144;2023-12-04T10:05:14;21.30;;;10.98;;
77226;SDS011;66234;47.642;19.144;2023-12-04T10:08:17;17.70;;;9.15;;
77226;SDS011;66234;47.642;19.144;2023-12-04T10:11:19;19.77;;;10.57;;
77226;SDS011;66234;47.642;19.144;2023-12-04T10:14:22;22.77;;;10.60;;
77226;SDS011;66234;47.642;19.144;2023-12-04T10:17:26;19.88;;;9.45;;
77226;SDS011;66234;47.642;19.144;2023-12-04T10:20:36;13.93;;;7.53;;
77226;SDS011;66234;47.642;19.144;2023-12-04T10:23:54;12.63;;;6.28;;
77226;SDS011;66234;47.642;19.144;2023-12-04T10:26:56;13.60;;;7.45;;
77226;SDS011;66234;47.642;19.144;2023-12-04T10:30:00;16.58;;;8.07;;
77226;SDS011;66234;47.642;19.144;2023-12-04T10:33:04;19.40;;;7.23;;
77226;SDS011;66234;47.642;19.144;2023-12-04T10:36:11;15.20;;;8.80;;
77226;SDS011;66234;47.642;19.144;2023-12-04T10:39:15;12.18;;;7.00;;
77226;SDS011;66234;47.642;19.144;2023-12-04T10:45:32;10.10;;;5.53;;
77226;SDS011;66234;47.642;19.144;2023-12-04T10:48:36;17.52;;;7.72;;
77226;SDS011;66234;47.642;19.144;2023-12-04T10:51:40;18.90;;;9.32;;
77226;SDS011;66234;47.642;19.144;2023-12-04T10:54:43;13.63;;;7.95;;
77226;SDS011;66234;47.642;19.144;2023-12-04T10:57:45;17.00;;;9.45;;
77226;SDS011;66234;47.642;19.144;2023-12-04T11:00:51;16.55;;;7.50;;
77226;SDS011;66234;47.642;19.144;2023-12-04T11:03:58;10.60;;;5.77;;
77226;SDS011;66234;47.642;19.144;2023-12-04T11:07:05;14.82;;;6.85;;
77226;SDS011;66234;47.642;19.144;2023-12-04T11:10:09;15.40;;;7.40;;
77226;SDS011;66234;47.642;19.144;2023-12-04T11:13:21;14.90;;;7.90;;
77226;SDS011;66234;47.642;19.144;2023-12-04T11:20:07;14.02;;;7.07;;
77226;SDS011;66234;47.642;19.144;2023-12-04T11:23:15;18.90;;;7.07;;
77226;SDS011;66234;47.642;19.144;2023-12-04T11:26:18;21.07;;;8.53;;
77226;SDS011;66234;47.642;19.144;2023-12-04T11:29:24;16.08;;;7.45;;
77226;SDS011;66234;47.642;19.144;2023-12-04T11:32:28;16.10;;;7.45;;
77226;SDS011;66234;47.642;19.144;2023-12-04T11:35:30;16.42;;;9.00;;
77226;SDS011;66234;47.642;19.144;2023-12-04T11:38:36;11.95;;;5.32;;
77226;SDS011;66234;47.642;19.144;2023-12-04T11:41:41;15.30;;;8.05;;
77226;SDS011;66234;47.642;19.144;2023-12-04T11:44:47;12.88;;;6.18;;
77226;SDS011;66234;47.642;19.144;2023-12-04T11:50:57;11.75;;;6.63;;
77226;SDS011;66234;47.642;19.144;2023-12-04T11:54:00;14.18;;;7.82;;
77226;SDS011;66234;47.642;19.144;2023-12-04T12:00:12;9.17;;;5.30;;
77226;SDS011;66234;47.642;19.144;2023-12-04T12:03:25;10.68;;;5.85;;
77226;SDS011;66234;47.642;19.144;2023-12-04T12:06:30;13.00;;;5.55;;
77226;SDS011;66234;47.642;19.144;2023-12-04T12:09:33;10.33;;;5.30;;
77226;SDS011;66234;47.642;19.144;2023-12-04T12:12:36;9.60;;;4.70;;
77226;SDS011;66234;47.642;19.144;2023-12-04T12:15:39;9.32;;;5.45;;
77226;SDS011;66234;47.642;19.144;2023-12-04T12:18:42;17.80;;;6.80;;
77226;SDS011;66234;47.642;19.144;2023-12-04T12:21:44;9.77;;;4.43;;
77226;SDS011;66234;47.642;19.144;2023-12-04T12:24:47;11.63;;;5.00;;
77226;SDS011;66234;47.642;19.144;2023-12-04T12:27:50;17.70;;;6.88;;
77226;SDS011;66234;47.642;19.144;2023-12-04T12:30:52;10.10;;;4.45;;
77226;SDS011;66234;47.642;19.144;2023-12-04T12:33:55;12.17;;;5.53;;
77226;SDS011;66234;47.642;19.144;2023-12-04T12:36:59;9.27;;;4.80;;
77226;SDS011;66234;47.642;19.144;2023-12-04T12:40:03;11.25;;;5.55;;
77226;SDS011;66234;47.642;19.144;2023-12-04T12:43:08;12.43;;;5.65;;
77226;SDS011;66234;47.642;19.144;2023-12-04T12:46:11;9.77;;;5.23;;
77226;SDS011;66234;47.642;19.144;2023-12-04T12:49:14;17.95;;;7.20;;
77226;SDS011;66234;47.642;19.144;2023-12-04T12:52:33;11.93;;;6.20;;
77226;SDS011;66234;47.642;19.144;2023-12-04T12:55:42;11.27;;;6.18;;
77226;SDS011;66234;47.642;19.144;2023-12-04T12:58:45;8.67;;;5.20;;
77226;SDS011;66234;47.642;19.144;2023-12-04T13:01:48;9.00;;;5.18;;
77226;SDS011;66234;47.642;19.144;2023-12-04T13:04:51;11.20;;;6.20;;
77226;SDS011;66234;47.642;19.144;2023-12-04T13:07:54;10.75;;;5.78;;
77226;SDS011;66234;47.642;19.144;2023-12-04T13:10:57;8.97;;;4.10;;
77226;SDS011;66234;47.642;19.144;2023-12-04T13:14:01;9.02;;;5.47;;
77226;SDS011;66234;47.642;19.144;2023-12-04T13:17:03;9.38;;;5.97;;
77226;SDS011;66234;47.642;19.144;2023-12-04T13:20:06;11.95;;;7.00;;
77226;SDS011;66234;47.642;19.144;2023-12-04T13:23:14;10.03;;;5.37;;
77226;SDS011;66234;47.642;19.144;2023-12-04T13:26:16;10.63;;;5.75;;
77226;SDS011;66234;47.642;19.144;2023-12-04T13:29:19;7.72;;;5.13;;
77226;SDS011;66234;47.642;19.144;2023-12-04T13:32:22;12.00;;;5.47;;
77226;SDS011;66234;47.642;19.144;2023-12-04T13:35:24;16.63;;;7.13;;
77226;SDS011;66234;47.642;19.144;2023-12-04T13:38:27;22.52;;;8.82;;
77226;SDS011;66234;47.642;19.144;2023-12-04T13:41:39;19.60;;;8.18;;
77226;SDS011;66234;47.642;19.144;2023-12-04T13:45:00;19.25;;;8.57;;
77226;SDS011;66234;47.642;19.144;2023-12-04T13:48:04;19.27;;;10.00;;
77226;SDS011;66234;47.642;19.144;2023-12-04T13:51:10;25.83;;;10.45;;
77226;SDS011;66234;47.642;19.144;2023-12-04T13:54:15;18.25;;;9.10;;
77226;SDS011;66234;47.642;19.144;2023-12-04T13:57:23;19.00;;;8.13;;
77226;SDS011;66234;47.642;19.144;2023-12-04T14:00:36;17.80;;;8.57;;
77226;SDS011;66234;47.642;19.144;2023-12-04T14:03:40;15.02;;;7.97;;
77226;SDS011;66234;47.642;19.144;2023-12-04T14:06:44;20.02;;;9.77;;
77226;SDS011;66234;47.642;19.144;2023-12-04T14:09:48;17.50;;;9.37;;
77226;SDS011;66234;47.642;19.144;2023-12-04T14:12:51;16.67;;;8.77;;
77226;SDS011;66234;47.642;19.144;2023-12-04T14:15:54;20.38;;;7.78;;
77226;SDS011;66234;47.642;19.144;2023-12-04T14:18:57;19.00;;;9.73;;
77226;SDS011;66234;47.642;19.144;2023-12-04T14:22:01;12.50;;;6.63;;
77226;SDS011;66234;47.642;19.144;2023-12-04T14:25:04;18.45;;;8.85;;
77226;SDS011;66234;47.642;19.144;2023-12-04T14:28:09;18.20;;;10.18;;
77226;SDS011;66234;47.642;19.144;2023-12-04T14:31:12;21.73;;;10.53;;
77226;SDS011;66234;47.642;19.144;2023-12-04T14:34:15;19.85;;;9.48;;
77226;SDS011;66234;47.642;19.144;2023-12-04T14:37:17;19.25;;;9.93;;
77226;SDS011;66234;47.642;19.144;2023-12-04T14:40:20;31.77;;;13.65;;
77226;SDS011;66234;47.642;19.144;2023-12-04T14:43:23;22.00;;;11.13;;
77226;SDS011;66234;47.642;19.144;2023-12-04T14:46:27;23.45;;;10.13;;
77226;SDS011;66234;47.642;19.144;2023-12-04T14:49:29;19.70;;;10.80;;
77226;SDS011;66234;47.642;19.144;2023-12-04T14:52:32;25.02;;;11.95;;
77226;SDS011;66234;47.642;19.144;2023-12-04T14:55:36;27.73;;;11.90;;
77226;SDS011;66234;47.642;19.144;2023-12-04T14:59:08;24.73;;;11.57;;
77226;SDS011;66234;47.642;19.144;2023-12-04T15:02:30;30.20;;;13.07;;
77226;SDS011;66234;47.642;19.144;2023-12-04T15:05:54;22.08;;;11.52;;
77226;SDS011;66234;47.642;19.144;2023-12-04T15:09:15;35.53;;;14.95;;
77226;SDS011;66234;47.642;19.144;2023-12-04T15:12:36;33.72;;;12.95;;
77226;SDS011;66234;47.642;19.144;2023-12-04T15:15:38;26.27;;;13.15;;
77226;SDS011;66234;47.642;19.144;2023-12-04T15:18:59;23.00;;;11.00;;
77226;SDS011;66234;47.642;19.144;2023-12-04T15:22:08;24.15;;;12.20;;
77226;SDS011;66234;47.642;19.144;2023-12-04T15:25:11;26.13;;;11.65;;
77226;SDS011;66234;47.642;19.144;2023-12-04T15:28:14;21.08;;;10.23;;
77226;SDS011;66234;47.642;19.144;2023-12-04T15:31:16;19.93;;;9.80;;
77226;SDS011;66234;47.642;19.144;2023-12-04T15:34:19;20.10;;;9.98;;
77226;SDS011;66234;47.642;19.144;2023-12-04T15:37:23;23.45;;;11.20;;
77226;SDS011;66234;47.642;19.144;2023-12-04T15:40:26;27.50;;;12.13;;
77226;SDS011;66234;47.642;19.144;2023-12-04T15:43:29;27.13;;;11.07;;
77226;SDS011;66234;47.642;19.144;2023-12-04T15:46:32;24.60;;;11.05;;
77226;SDS011;66234;47.642;19.144;2023-12-04T15:49:35;20.17;;;9.52;;
77226;SDS011;66234;47.642;19.144;2023-12-04T15:52:37;18.93;;;8.90;;
77226;SDS011;66234;47.642;19.144;2023-12-04T15:55:42;22.13;;;10.25;;
77226;SDS011;66234;47.642;19.144;2023-12-04T15:58:45;24.90;;;11.10;;
77226;SDS011;66234;47.642;19.144;2023-12-04T16:01:49;18.35;;;8.77;;
77226;SDS011;66234;47.642;19.144;2023-12-04T16:04:52;24.50;;;11.30;;
77226;SDS011;66234;47.642;19.144;2023-12-04T16:07:55;21.65;;;9.23;;
77226;SDS011;66234;47.642;19.144;2023-12-04T16:10:59;21.95;;;10.30;;
77226;SDS011;66234;47.642;19.144;2023-12-04T16:14:01;24.13;;;11.13;;
77226;SDS011;66234;47.642;19.144;2023-12-04T16:17:04;24.55;;;10.15;;
77226;SDS011;66234;47.642;19.144;2023-12-04T16:20:06;24.33;;;11.48;;
77226;SDS011;66234;47.642;19.144;2023-12-04T16:23:13;25.67;;;11.03;;
77226;SDS011;66234;47.642;19.144;2023-12-04T16:26:17;20.15;;;10.13;;
77226;SDS011;66234;47.642;19.144;2023-12-04T16:29:20;23.23;;;11.32;;
77226;SDS011;66234;47.642;19.144;2023-12-04T16:32:23;24.10;;;11.88;;
77226;SDS011;66234;47.642;19.144;2023-12-04T16:35:26;22.53;;;10.00;;
77226;SDS011;66234;47.642;19.144;2023-12-04T16:38:30;23.85;;;12.55;;
77226;SDS011;66234;47.642;19.144;2023-12-04T16:41:33;22.30;;;11.68;;
77226;SDS011;66234;47.642;19.144;2023-12-04T16:44:36;18.13;;;9.52;;
77226;SDS011;66234;47.642;19.144;2023-12-04T16:47:38;21.50;;;11.37;;
77226;SDS011;66234;47.642;19.144;2023-12-04T16:50:41;24.88;;;11.10;;
77226;SDS011;66234;47.642;19.144;2023-12-04T16:53:44;19.00;;;10.48;;
77226;SDS011;66234;47.642;19.144;2023-12-04T16:56:47;20.97;;;9.07;;
77226;SDS011;66234;47.642;19.144;2023-12-04T16:59:50;20.95;;;8.77;;
77226;SDS011;66234;47.642;19.144;2023-12-04T17:02:55;16.98;;;8.90;;
77226;SDS011;66234;47.642;19.144;2023-12-04T17:05:58;23.05;;;9.00;;
77226;SDS011;66234;47.642;19.144;2023-12-04T17:09:01;23.75;;;9.80;;
77226;SDS011;66234;47.642;19.144;2023-12-04T17:12:04;21.27;;;10.57;;
77226;SDS011;66234;47.642;19.144;2023-12-04T17:15:07;24.70;;;12.73;;
77226;SDS011;66234;47.642;19.144;2023-12-04T17:18:10;23.37;;;12.27;;
77226;SDS011;66234;47.642;19.144;2023-12-04T17:21:14;24.77;;;11.93;;
77226;SDS011;66234;47.642;19.144;2023-12-04T17:24:16;24.65;;;11.27;;
77226;SDS011;66234;47.642;19.144;2023-12-04T17:27:19;23.27;;;11.67;;
77226;SDS011;66234;47.642;19.144;2023-12-04T17:30:22;24.95;;;11.70;;
77226;SDS011;66234;47.642;19.144;2023-12-04T17:33:24;26.92;;;12.00;;
77226;SDS011;66234;47.642;19.144;2023-12-04T17:36:27;32.53;;;12.77;;
77226;SDS011;66234;47.642;19.144;2023-12-04T17:39:30;25.45;;;11.13;;
77226;SDS011;66234;47.642;19.144;2023-12-04T17:42:33;21.92;;;9.85;;
77226;SDS011;66234;47.642;19.144;2023-12-04T17:45:36;23.20;;;10.43;;
77226;SDS011;66234;47.642;19.144;2023-12-04T17:48:40;25.33;;;11.20;;
77226;SDS011;66234;47.642;19.144;2023-12-04T17:51:44;27.27;;;12.55;;
77226;SDS011;66234;47.642;19.144;2023-12-04T17:54:47;27.92;;;12.35;;
77226;SDS011;66234;47.642;19.144;2023-12-04T17:57:50;22.90;;;10.90;;
77226;SDS011;66234;47.642;19.144;2023-12-04T18:00:53;23.00;;;11.32;;